Airfield :
LOGIN :

Register | Disclaimer

   EN    FR    IT 

 










Legend :    VFR   Marginal VFR   IFR   Intensive IFR   Very Intensive IFR
Visi :
Ceiling :
>= 8 km
>= 3000ft
5 to 8 km
1000 to 3000 ft
1500m to 5 km
500 to 1000 ft
800 to 1500m
200 to 500 ft
< 800m
< 200 ft
Symbols :   Thunderstorms  Fog  Heavy snow  Heavy precipitations  Wind > 20 kt
SIGMETs :     Misc.  Thunderstorms  Icing  Turbulence  Mountain Waves  Volcanic Ashes






- Airport Elevation : 1504 ft
- IATA code : PNA


LEPP - Noain Pamplona

CURRENT METAR :
  • 280300Z AUTO 19001KT 9999 FEW020 BKN025 OVC030 07/06 Q1019

EXPIRED METARs :
  • 280230Z AUTO 00000KT 4800 -RA BR BKN026 BKN031 07/06 Q1019
  • 280200Z AUTO 05003KT 020V080 9999 BKN027 BKN032 07/06 Q1019
  • 272200Z VRB02KT 9999 SCT038 BKN049 07/06 Q1019
  • 280130Z AUTO 08006KT 9999 -RA FEW029 SCT047 BKN055 07/06 Q1019 RERA
  • 272230Z VRB02KT 9999 SCT035 BKN043 07/06 Q1019
  • 280030Z AUTO 25003KT 190V290 9999 -RA BKN033 OVC040 07/06 Q1020
  • 280100Z AUTO 32005KT 5000 RA BR BKN020 OVC029 07/06 Q1020

TAF TAF LEPP
Valid from the 28 at 03:00 until the 29 at 03:00 UTC


280200Z 2803/2903 31009KT 9999 FEW010 BKN025 TX09/2813Z TN04/2807Z
PROB40
TEMPO 2803/2903 3000 RA BR BKN010
PROB30
TEMPO 2803/2903 1500 SHRA SCT030TCU



MET'MAP, your aeronautical weather chart ! - Copyright ORBIFLY December 2007 - Disclaimer

ORBIFLY MET'MAP TEAM :

Programming & Development : Alexandra Zaïnal
Original concept : Baudouin d'Aumeries
Technical & hardware support : Manuel Goepfert
Assistance : Marc-Olivier Méhu




SOURCES & CREDITS :

   NOAA